Time;durP1;ratioP1;P1;durP2;ratioP2;P2;SDS_P1;SDS_P2;PMS_P1;PMS_P2;Temp;Humidity;BMP_temperature;BMP_pressure;BME280_temperature;BME280_humidity;BME280_pressure;Samples;Min_cycle;Max_cycle;Signal;HPM_P1;HPM_P2
2023/04/04 00:02:02;;;;;;;;;;;4.90;66.90;;;4.22;51.58;101884.84;5092240;28;19974;-75
2023/04/04 00:04:29;;;;;;;;;;;4.80;67.40;;;4.17;51.70;101890.53;5092273;28;20392;-75
2023/04/04 00:06:56;;;;;;;;;;;4.80;67.50;;;4.14;51.23;101889.00;5092221;28;19981;-75
2023/04/04 00:09:23;;;;;;;;;;;4.80;67.10;;;4.12;51.46;101887.47;5092268;28;19928;-76
2023/04/04 00:11:52;;;;;;;;;;;4.70;67.40;;;4.09;51.25;101890.38;5092099;28;19928;-77
2023/04/04 00:14:19;;;;;;;;;;;4.70;67.40;;;4.07;51.60;101895.78;5073751;28;20350;-76
2023/04/04 00:16:46;;;;;;;;;;;4.90;67.90;;;4.06;51.70;101901.22;5091774;28;20380;-78
2023/04/04 00:19:16;;;;;;;;;;;4.70;67.90;;;4.04;51.80;101901.31;5091838;28;20296;-76
2023/04/04 00:21:44;;;;;;;;;;;4.60;67.70;;;4.01;51.40;101896.31;5091795;28;20376;-77
2023/04/04 00:24:11;;;;;;;;;;;4.60;67.80;;;4.00;51.92;101914.91;5091902;28;19924;-74
2023/04/04 00:26:38;;;;;;;;;;;4.60;68.10;;;3.97;51.76;101905.47;5091813;28;19973;-77
2023/04/04 00:29:07;;;;;;;;;;;4.60;68.00;;;3.96;52.08;101901.16;5073439;28;19981;-75
2023/04/04 00:31:34;;;;;;;;;;;4.60;68.30;;;3.95;52.11;101907.41;5091705;28;20022;-75
2023/04/04 00:34:01;;;;;;;;;;;4.50;68.30;;;3.93;51.81;101903.22;5091594;28;20573;-75
2023/04/04 00:36:28;;;;;;;;;;;4.50;68.30;;;3.90;51.99;101906.94;5091487;28;19938;-75
2023/04/04 00:38:55;;;;;;;;;;;4.50;68.50;;;3.89;52.34;101900.00;5072851;28;20414;-76
2023/04/04 00:41:22;;;;;;;;;;;4.50;68.50;;;3.88;52.16;101901.00;5091428;28;19928;-74
2023/04/04 00:43:49;;;;;;;;;;;4.50;68.70;;;3.88;52.15;101906.25;5072426;28;19927;-74
2023/04/04 00:46:18;;;;;;;;;;;4.50;68.70;;;3.85;52.50;101902.06;5091288;28;20398;-77
2023/04/04 00:48:47;;;;;;;;;;;4.50;68.90;;;3.84;52.21;101905.69;5072942;28;19981;-75
2023/04/04 00:51:14;;;;;;;;;;;4.50;68.90;;;3.84;52.24;101904.84;5091209;28;20035;-75
2023/04/04 00:53:44;;;;;;;;;;;4.40;68.50;;;3.80;52.16;101904.28;5072879;28;19952;-76
2023/04/04 00:56:12;;;;;;;;;;;4.40;68.80;;;3.79;52.48;101902.59;5072867;28;19932;-75
2023/04/04 00:58:39;;;;;;;;;;;4.40;69.10;;;3.78;52.58;101911.50;5072743;28;20369;-76
2023/04/04 01:01:06;;;;;;;;;;;4.40;69.10;;;3.76;52.84;101907.34;5072851;28;19966;-75
2023/04/04 01:03:36;;;;;;;;;;;4.40;69.20;;;3.75;52.61;101903.81;5091140;28;19924;-74
2023/04/04 01:06:03;;;;;;;;;;;4.40;69.20;;;3.74;52.67;101902.16;5090880;28;19935;-76
2023/04/04 01:08:31;;;;;;;;;;;4.30;69.30;;;3.73;52.81;101897.88;5072543;28;19990;-77
2023/04/04 01:10:58;;;;;;;;;;;4.30;69.60;;;3.72;53.00;101892.72;5072554;28;19932;-77
2023/04/04 01:13:26;;;;;;;;;;;4.30;69.50;;;3.71;52.99;101894.53;5072568;28;20024;-76
2023/04/04 01:15:54;;;;;;;;;;;4.30;69.50;;;3.70;53.09;101895.47;5072519;28;20292;-76
2023/04/04 01:18:22;;;;;;;;;;;4.30;69.70;;;3.69;53.04;101887.69;5072308;28;19928;-75
2023/04/04 01:20:57;;;;;;;;;;;4.30;69.60;;;3.66;52.71;101886.19;5072172;28;20015;-77
2023/04/04 01:23:30;;;;;;;;;;;4.30;69.50;;;3.66;52.85;101890.59;5090727;28;19924;-74
2023/04/04 01:26:04;;;;;;;;;;;4.30;69.60;;;3.61;53.06;101894.47;5072177;28;19928;-75
2023/04/04 01:28:32;;;;;;;;;;;4.20;69.50;;;3.59;52.92;101885.84;5090503;28;19963;-77
2023/04/04 01:31:01;;;;;;;;;;;4.20;69.30;;;3.59;52.79;101893.75;5071850;28;19934;-75
2023/04/04 01:33:36;;;;;;;;;;;4.20;69.40;;;3.56;53.01;101894.03;5071747;28;20134;-76
2023/04/04 01:36:08;;;;;;;;;;;4.10;69.80;;;3.53;53.25;101889.00;5072078;28;19932;-75
2023/04/04 01:38:49;;;;;;;;;;;4.20;69.90;;;3.52;53.28;101889.16;5071995;28;20471;-76
2023/04/04 01:41:19;;;;;;;;;;;4.10;69.90;;;3.50;53.35;101883.97;5090445;28;19928;-76
2023/04/04 01:43:52;;;;;;;;;;;4.10;70.10;;;3.49;53.47;101886.75;5072241;28;19928;-75
2023/04/04 01:46:19;;;;;;;;;;;4.10;70.40;;;3.46;53.68;101885.19;5071928;28;19940;-75
2023/04/04 01:48:49;;;;;;;;;;;4.10;70.40;;;3.42;53.54;101881.19;5071821;28;20308;-76
2023/04/04 01:51:22;;;;;;;;;;;4.20;70.70;;;3.43;53.70;101876.75;5072073;28;20008;-74
2023/04/04 01:53:49;;;;;;;;;;;4.00;70.50;;;3.42;53.70;101872.44;5071957;28;20007;-77
2023/04/04 01:56:18;;;;;;;;;;;4.00;70.40;;;3.39;53.84;101870.06;5071669;28;20350;-76
2023/04/04 01:58:46;;;;;;;;;;;4.00;70.70;;;3.38;54.05;101874.50;5071642;28;19928;-74
2023/04/04 02:01:13;;;;;;;;;;;4.00;70.90;;;3.37;53.98;101867.56;5071754;28;19924;-76
2023/04/04 02:03:40;;;;;;;;;;;3.90;70.90;;;3.33;54.10;101866.97;5071939;28;19930;-75
2023/04/04 02:06:07;;;;;;;;;;;3.90;71.10;;;3.31;54.03;101868.03;5089984;28;19927;-74
2023/04/04 02:08:35;;;;;;;;;;;3.90;71.30;;;3.30;54.33;101874.28;5089901;28;19924;-75
2023/04/04 02:11:03;;;;;;;;;;;3.90;71.50;;;3.28;54.25;101869.16;5071729;28;19928;-75
2023/04/04 02:13:32;;;;;;;;;;;3.90;71.50;;;3.27;53.91;101864.00;5071697;28;20027;-76
2023/04/04 02:16:00;;;;;;;;;;;3.80;71.20;;;3.26;54.23;101867.59;5071392;28;20031;-77
2023/04/04 02:18:27;;;;;;;;;;;3.90;71.30;;;3.25;54.25;101866.75;5071488;28;19963;-77
2023/04/04 02:20:57;;;;;;;;;;;3.80;71.50;;;3.21;54.53;101862.72;5071447;28;19982;-76
2023/04/04 02:23:24;;;;;;;;;;;3.80;71.70;;;3.20;54.62;101865.47;5071748;28;20022;-78
2023/04/04 02:25:51;;;;;;;;;;;3.80;71.70;;;3.19;54.14;101871.72;5089911;28;19928;-78
2023/04/04 02:28:18;;;;;;;;;;;3.80;71.50;;;3.18;54.04;101867.44;5071541;28;19928;-75
2023/04/04 02:30:49;;;;;;;;;;;3.70;71.60;;;3.15;54.36;101865.88;5089805;28;19985;-75
2023/04/04 02:33:16;;;;;;;;;;;3.70;71.80;;;3.13;54.73;101875.72;5071496;28;20376;-75
2023/04/04 02:35:44;;;;;;;;;;;3.70;71.70;;;3.12;54.30;101871.38;5071531;28;20720;-77
2023/04/04 02:38:11;;;;;;;;;;;3.70;71.70;;;3.10;54.57;101873.31;5071304;28;19991;-76
2023/04/04 02:40:45;;;;;;;;;;;3.70;71.90;;;3.10;54.59;101870.69;5071108;28;20426;-76
2023/04/04 02:43:12;;;;;;;;;;;3.60;71.90;;;3.08;54.62;101867.34;5071621;28;20005;-78
2023/04/04 02:45:39;;;;;;;;;;;3.60;71.90;;;3.06;54.71;101870.09;5071356;28;19931;-76
2023/04/04 02:48:20;;;;;;;;;;;3.60;72.10;;;3.04;54.47;101864.13;5071341;28;19968;-77
2023/04/04 02:50:49;;;;;;;;;;;3.60;72.00;;;3.02;54.40;101863.41;5071402;28;19932;-75
2023/04/04 02:53:17;;;;;;;;;;;3.60;71.90;;;3.01;54.20;101858.28;5089715;28;19931;-75
2023/04/04 02:55:46;;;;;;;;;;;3.60;71.80;;;2.99;54.36;101860.22;5071349;28;19924;-78
2023/04/04 02:58:13;;;;;;;;;;;3.60;71.90;;;2.96;54.46;101850.75;5071438;28;20014;-75
2023/04/04 03:00:40;;;;;;;;;;;3.50;71.90;;;2.96;54.29;101857.81;5089563;28;20430;-75
2023/04/04 03:03:07;;;;;;;;;;;3.50;71.80;;;2.94;54.60;101851.84;5089841;28;19931;-76
2023/04/04 03:05:41;;;;;;;;;;;3.50;71.90;;;2.92;54.63;101856.41;5071358;28;19978;-77
2023/04/04 03:08:08;;;;;;;;;;;3.50;72.10;;;2.90;54.62;101856.53;5074387;28;19928;-76
2023/04/04 03:10:35;;;;;;;;;;;3.50;71.90;;;2.89;54.79;101848.75;5075116;28;20431;-77
2023/04/04 03:13:03;;;;;;;;;;;3.50;72.10;;;2.88;55.02;101857.59;5075252;28;19924;-75
2023/04/04 03:15:33;;;;;;;;;;;3.40;72.10;;;2.86;54.88;101854.28;5074824;28;19928;-76
2023/04/04 03:18:00;;;;;;;;;;;3.40;72.30;;;2.83;55.27;101856.22;5093205;28;19964;-78
2023/04/04 03:20:30;;;;;;;;;;;3.40;72.70;;;2.81;55.13;101867.81;5074593;28;19924;-75
2023/04/04 03:22:58;;;;;;;;;;;3.30;72.70;;;2.80;55.19;101856.47;5075091;28;20018;-75
2023/04/04 03:25:26;;;;;;;;;;;3.30;72.60;;;2.80;55.06;101860.91;5074710;28;20469;-76
2023/04/04 03:27:54;;;;;;;;;;;3.40;72.50;;;2.77;55.44;101854.06;5074363;28;19928;-75
2023/04/04 03:30:24;;;;;;;;;;;3.30;73.00;;;2.75;55.52;101863.91;5074756;28;19981;-75
2023/04/04 03:32:52;;;;;;;;;;;3.30;73.20;;;2.74;55.25;101850.88;5074752;28;19928;-76
2023/04/04 03:35:19;;;;;;;;;;;3.30;73.00;;;2.73;55.43;101854.44;5074377;28;19931;-76
2023/04/04 03:37:46;;;;;;;;;;;3.30;72.70;;;2.72;55.24;101850.13;5092773;28;19924;-76
2023/04/04 03:40:14;;;;;;;;;;;3.30;72.80;;;2.70;55.29;101845.00;5074158;28;19928;-74
2023/04/04 03:42:42;;;;;;;;;;;3.30;72.90;;;2.70;55.24;101845.00;5074328;28;19924;-77
2023/04/04 03:45:11;;;;;;;;;;;3.30;72.90;;;2.69;55.06;101838.06;5092324;28;20030;-75
2023/04/04 03:47:40;;;;;;;;;;;3.30;72.90;;;2.67;55.07;101833.88;5074458;28;20030;-76
2023/04/04 03:50:08;;;;;;;;;;;3.20;72.90;;;2.64;55.52;101834.97;5074370;28;20019;-79
2023/04/04 03:52:38;;;;;;;;;;;3.20;73.20;;;2.63;55.53;101838.56;5074400;28;19979;-75
2023/04/04 03:55:06;;;;;;;;;;;3.20;73.10;;;2.60;55.45;101838.81;5074192;28;19931;-77
2023/04/04 03:57:35;;;;;;;;;;;3.20;73.20;;;2.60;55.46;101835.34;5074274;28;19928;-77
2023/04/04 04:00:04;;;;;;;;;;;3.30;73.30;;;2.58;55.57;101836.28;5074033;28;19963;-76
2023/04/04 04:02:39;;;;;;;;;;;3.10;73.40;;;2.55;55.61;101838.38;5092480;28;19931;-77
2023/04/04 04:05:07;;;;;;;;;;;3.10;73.40;;;2.54;55.53;101840.16;5073963;28;19981;-76
2023/04/04 04:07:35;;;;;;;;;;;3.10;73.70;;;2.52;55.98;101831.53;5092168;28;20015;-76
2023/04/04 04:10:02;;;;;;;;;;;3.10;73.70;;;2.52;55.98;101828.91;5073877;28;20022;-75
2023/04/04 04:12:29;;;;;;;;;;;3.10;73.90;;;2.50;56.04;101832.63;5073884;28;20356;-75
2023/04/04 04:14:57;;;;;;;;;;;3.10;73.90;;;2.49;55.97;101837.06;5073603;28;20117;-75
2023/04/04 04:17:24;;;;;;;;;;;3.10;74.10;;;2.49;56.21;101833.56;5091724;28;20388;-75
2023/04/04 04:19:51;;;;;;;;;;;3.10;74.00;;;2.48;55.88;101827.47;5072605;28;19931;-76
2023/04/04 04:22:19;;;;;;;;;;;3.00;73.90;;;2.47;56.08;101828.44;5074098;28;19935;-75
2023/04/04 04:24:46;;;;;;;;;;;3.00;74.00;;;2.46;55.94;101829.41;5073494;28;19968;-75
2023/04/04 04:27:13;;;;;;;;;;;3.20;74.10;;;2.46;56.12;101826.78;5073615;28;19935;-77
2023/04/04 04:29:40;;;;;;;;;;;3.00;74.20;;;2.45;56.59;101827.75;5073424;28;19974;-75
2023/04/04 04:32:09;;;;;;;;;;;3.00;74.50;;;2.43;56.68;101829.66;5073314;28;19928;-76
2023/04/04 04:34:42;;;;;;;;;;;3.00;74.50;;;2.44;56.26;101833.13;5073382;28;19935;-76
2023/04/04 04:37:09;;;;;;;;;;;3.00;74.10;;;2.42;56.39;101824.53;5073464;28;19931;-76
2023/04/04 04:39:46;;;;;;;;;;;3.00;74.30;;;2.42;56.33;101824.53;5073401;28;19928;-78
2023/04/04 04:42:33;;;;;;;;;;;3.00;74.50;;;2.41;56.59;101828.94;5073396;28;20381;-74
2023/04/04 04:45:02;;;;;;;;;;;3.00;74.50;;;2.39;56.38;101830.88;5073206;28;19928;-74
2023/04/04 04:47:33;;;;;;;;;;;3.00;74.50;;;2.38;56.42;101818.66;5073143;28;19931;-78
2023/04/04 04:50:03;;;;;;;;;;;3.00;74.60;;;2.38;56.26;101831.81;5073249;28;19987;-77
2023/04/04 04:52:37;;;;;;;;;;;3.00;74.20;;;2.37;56.06;101821.41;5073252;28;19967;-76
2023/04/04 04:55:05;;;;;;;;;;;2.90;74.10;;;2.35;56.07;101821.56;5073087;28;19936;-75
2023/04/04 04:57:34;;;;;;;;;;;2.90;74.30;;;2.34;56.47;101822.50;5072946;28;19928;-76
2023/04/04 05:00:05;;;;;;;;;;;2.90;74.50;;;2.32;56.50;101821.78;5073180;28;20653;-77
2023/04/04 05:02:33;;;;;;;;;;;2.90;74.50;;;2.30;56.62;101821.94;5073085;28;20384;-76
2023/04/04 05:05:00;;;;;;;;;;;2.90;74.90;;;2.30;56.61;101823.72;5073051;28;19968;-75
2023/04/04 05:07:28;;;;;;;;;;;2.90;74.70;;;2.28;56.63;101826.47;5072737;28;19924;-74
2023/04/04 05:09:55;;;;;;;;;;;2.80;74.60;;;2.28;56.87;101829.09;5072654;28;19924;-74
2023/04/04 05:12:23;;;;;;;;;;;2.90;74.90;;;2.27;56.82;101822.16;5072884;28;20466;-76
2023/04/04 05:14:52;;;;;;;;;;;2.90;75.00;;;2.26;56.70;101825.75;5072616;28;19931;-76
2023/04/04 05:17:21;;;;;;;;;;;2.80;74.80;;;2.26;56.59;101830.19;5072393;28;20372;-76
2023/04/04 05:19:50;;;;;;;;;;;2.80;74.60;;;2.26;56.69;101830.19;5072369;28;19928;-77
2023/04/04 05:22:21;;;;;;;;;;;2.80;75.00;;;2.23;56.89;101833.88;5072638;28;19939;-74
2023/04/04 05:24:51;;;;;;;;;;;2.80;75.10;;;2.22;57.12;101834.84;5072344;28;19932;-77
2023/04/04 05:27:22;;;;;;;;;;;2.80;75.20;;;2.23;56.80;101833.06;5072416;28;19924;-75
2023/04/04 05:29:56;;;;;;;;;;;2.80;74.90;;;2.22;56.79;101836.66;5071959;28;20465;-77
2023/04/04 05:32:24;;;;;;;;;;;2.80;75.00;;;2.22;57.06;101839.28;5072163;28;20002;-75
2023/04/04 05:35:03;;;;;;;;;;;2.80;75.40;;;2.21;57.45;101838.44;5052087;28;20327;-76
2023/04/04 05:37:38;;;;;;;;;;;2.80;75.50;;;2.21;57.29;101848.97;5052273;28;19929;-75
2023/04/04 05:40:06;;;;;;;;;;;2.80;75.70;;;2.20;57.39;101849.94;5070373;28;19929;-77
2023/04/04 05:42:35;;;;;;;;;;;2.80;75.60;;;2.22;57.39;101852.44;5052143;28;20023;-74
2023/04/04 05:45:02;;;;;;;;;;;2.80;75.60;;;2.22;57.62;101862.97;5052218;28;19993;-76
2023/04/04 05:47:30;;;;;;;;;;;2.80;75.80;;;2.23;57.54;101864.66;5051843;28;20007;-74
2023/04/04 05:49:57;;;;;;;;;;;2.80;76.00;;;2.24;57.64;101853.16;5071344;28;19928;-75
2023/04/04 05:52:26;;;;;;;;;;;2.80;75.90;;;2.25;57.58;101863.56;5072102;28;19928;-75
2023/04/04 05:54:53;;;;;;;;;;;2.80;76.20;;;2.27;58.00;101863.44;5071930;28;19975;-75
2023/04/04 05:57:29;;;;;;;;;;;2.90;76.30;;;2.30;58.05;101863.22;5071762;28;19931;-76
2023/04/04 05:59:58;;;;;;;;;;;2.90;76.50;;;2.35;57.81;101860.22;5071858;28;19979;-75
2023/04/04 06:02:26;;;;;;;;;;;2.90;76.40;;;2.38;57.85;101854.69;5071898;28;20019;-77
2023/04/04 06:05:00;;;;;;;;;;;2.90;76.40;;;2.41;57.96;101859.72;5071803;28;20368;-75
2023/04/04 06:07:35;;;;;;;;;;;3.00;76.60;;;2.44;58.19;101857.66;5071758;28;19933;-76
2023/04/04 06:10:02;;;;;;;;;;;3.00;76.70;;;2.46;57.92;101861.00;5090104;28;20010;-75
2023/04/04 06:12:31;;;;;;;;;;;3.00;76.50;;;2.50;58.01;101866.88;5071934;28;19931;-75
2023/04/04 06:14:58;;;;;;;;;;;3.00;76.80;;;2.51;58.10;101866.72;5071589;28;20708;-77
2023/04/04 06:17:25;;;;;;;;;;;3.10;76.80;;;2.56;58.39;101876.91;5071809;28;19958;-76
2023/04/04 06:19:54;;;;;;;;;;;3.10;76.90;;;2.60;58.46;101883.59;5071516;28;20015;-75
2023/04/04 06:22:22;;;;;;;;;;;3.20;77.00;;;2.66;58.91;101895.44;5071627;28;20392;-75
2023/04/04 06:24:53;;;;;;;;;;;3.30;77.40;;;2.74;58.90;101900.91;5071527;28;20459;-74
2023/04/04 06:27:21;;;;;;;;;;;3.30;77.40;;;2.77;58.54;101898.84;5071296;28;19936;-76
2023/04/04 06:29:48;;;;;;;;;;;3.30;77.00;;;2.83;58.64;101905.41;5071486;28;19930;-77
2023/04/04 06:32:20;;;;;;;;;;;3.40;77.00;;;2.91;58.46;101902.16;5071732;28;19928;-77
2023/04/04 06:34:48;;;;;;;;;;;3.50;77.10;;;2.96;58.35;101887.63;5071497;28;20031;-76
2023/04/04 06:37:19;;;;;;;;;;;3.60;76.80;;;3.04;58.02;101903.66;5071479;28;19935;-76
2023/04/04 06:40:05;;;;;;;;;;;3.60;76.80;;;3.12;58.54;101904.81;5071588;28;19935;-77
2023/04/04 06:42:32;;;;;;;;;;;3.70;76.80;;;3.19;58.39;101901.56;5074031;28;20013;-77
2023/04/04 06:45:03;;;;;;;;;;;3.70;76.60;;;3.26;58.03;101907.16;5075499;28;19935;-77
2023/04/04 06:47:32;;;;;;;;;;;3.80;76.30;;;3.35;57.73;101906.38;5075403;28;20504;-76
2023/04/04 06:50:01;;;;;;;;;;;3.90;76.40;;;3.43;57.79;101905.75;5075398;28;19924;-75
2023/04/04 06:52:29;;;;;;;;;;;4.00;76.30;;;3.51;57.68;101904.13;5075738;28;19924;-75
2023/04/04 06:54:56;;;;;;;;;;;4.10;76.00;;;3.59;57.47;101909.59;5075185;28;19978;-76
2023/04/04 06:57:24;;;;;;;;;;;4.20;75.60;;;3.72;57.33;101898.00;5093590;28;19928;-75
2023/04/04 06:59:51;;;;;;;;;;;4.30;75.50;;;3.83;56.91;101905.81;5093553;28;19928;-76
2023/04/04 07:02:18;;;;;;;;;;;4.40;74.70;;;3.93;56.99;101898.78;5075386;28;19981;-75
2023/04/04 07:04:45;;;;;;;;;;;4.60;75.00;;;4.03;56.52;101894.38;5093476;28;20395;-76
2023/04/04 07:07:12;;;;;;;;;;;4.60;74.70;;;4.12;56.08;101896.22;5093431;28;19982;-75
2023/04/04 07:09:39;;;;;;;;;;;4.70;74.10;;;4.21;55.62;101896.41;5093221;28;19932;-75
2023/04/04 07:12:06;;;;;;;;;;;4.80;73.30;;;4.32;55.16;101904.19;5093391;28;20014;-76
2023/04/04 07:14:35;;;;;;;;;;;4.90;72.90;;;4.41;55.06;101903.41;5093139;28;20010;-77
2023/04/04 07:17:02;;;;;;;;;;;5.00;72.30;;;4.51;55.26;101901.59;5093474;28;19924;-76
2023/04/04 07:19:29;;;;;;;;;;;5.10;72.50;;;4.61;54.19;101909.56;5093179;28;19934;-76
2023/04/04 07:21:56;;;;;;;;;;;5.20;71.70;;;4.70;54.26;101902.63;5093306;28;20451;-74
2023/04/04 07:24:23;;;;;;;;;;;5.30;71.70;;;4.80;54.03;101900.81;5093180;28;19941;-76
2023/04/04 07:26:50;;;;;;;;;;;5.40;71.30;;;4.91;53.41;101898.03;5093036;28;19927;-75
2023/04/04 07:29:17;;;;;;;;;;;5.50;70.40;;;4.99;53.04;101900.81;5092996;28;19928;-76
2023/04/04 07:31:46;;;;;;;;;;;5.70;69.80;;;5.12;53.53;101898.75;5093084;28;19973;-75
2023/04/04 07:34:13;;;;;;;;;;;5.80;70.60;;;5.25;53.25;101901.06;5093188;28;19928;-74
2023/04/04 07:36:40;;;;;;;;;;;5.90;70.20;;;5.39;52.99;101898.00;5093039;28;19928;-75
2023/04/04 07:39:07;;;;;;;;;;;6.00;69.40;;;5.52;52.24;101900.34;5092826;28;19924;-75
2023/04/04 07:41:34;;;;;;;;;;;6.20;68.70;;;5.63;51.96;101894.88;5092416;28;20015;-76
2023/04/04 07:44:01;;;;;;;;;;;6.30;68.30;;;5.78;51.60;101899.72;5092727;28;19935;-75
2023/04/04 07:46:28;;;;;;;;;;;6.50;68.50;;;5.91;50.89;101897.59;5092577;28;20311;-74
2023/04/04 07:48:56;;;;;;;;;;;6.60;66.90;;;6.00;51.55;101901.19;5092548;28;20019;-75
2023/04/04 07:51:28;;;;;;;;;;;6.70;67.80;;;6.11;50.74;101888.59;5092774;28;20372;-74
2023/04/04 07:53:55;;;;;;;;;;;6.80;66.90;;;6.22;50.47;101884.09;5092340;28;20021;-75
2023/04/04 07:56:22;;;;;;;;;;;6.90;66.40;;;6.29;49.58;101883.31;5092473;28;20026;-76
2023/04/04 07:58:49;;;;;;;;;;;7.00;65.00;;;6.35;48.41;101888.06;5091903;28;20336;-75
2023/04/04 08:01:16;;;;;;;;;;;7.00;63.40;;;6.45;48.47;101880.06;5092385;28;20030;-77
2023/04/04 08:03:43;;;;;;;;;;;7.10;63.40;;;6.48;47.88;101881.56;5092557;28;20447;-76
2023/04/04 08:06:12;;;;;;;;;;;7.20;63.20;;;6.48;48.42;101871.78;5092260;28;19935;-75
2023/04/04 08:08:40;;;;;;;;;;;7.20;63.90;;;6.54;48.22;101870.34;5092224;28;19924;-75
2023/04/04 08:11:07;;;;;;;;;;;7.30;63.20;;;6.59;48.25;101870.75;5092248;28;19928;-76
2023/04/04 08:13:34;;;;;;;;;;;7.30;63.40;;;6.63;47.97;101872.94;5092223;28;20027;-77
2023/04/04 08:16:01;;;;;;;;;;;7.30;63.00;;;6.66;46.26;101869.97;5092110;28;20365;-76
2023/04/04 08:18:27;;;;;;;;;;;7.30;60.80;;;6.70;45.93;101873.19;5091673;28;20019;-75
2023/04/04 08:20:54;;;;;;;;;;;7.40;59.70;;;6.70;46.25;101873.19;5091980;28;20038;-75
2023/04/04 08:23:23;;;;;;;;;;;7.40;60.60;;;6.71;46.67;101877.50;5092072;28;20027;-76
2023/04/04 08:25:50;;;;;;;;;;;7.40;61.10;;;6.77;46.65;101878.69;5091863;28;20020;-76
2023/04/04 08:28:17;;;;;;;;;;;7.40;61.20;;;6.76;46.00;101877.88;5091971;28;19928;-76
2023/04/04 08:30:44;;;;;;;;;;;7.50;60.30;;;6.72;45.52;101877.31;5091886;28;19928;-75
2023/04/04 08:33:11;;;;;;;;;;;7.50;59.30;;;6.76;44.92;101875.22;5091973;28;20036;-76
2023/04/04 08:35:38;;;;;;;;;;;7.50;58.40;;;6.82;44.20;101874.59;5091665;28;20573;-76
2023/04/04 08:38:07;;;;;;;;;;;7.50;57.50;;;6.85;44.80;101873.47;5091585;28;19950;-77
2023/04/04 08:40:37;;;;;;;;;;;7.50;58.60;;;6.85;44.45;101873.47;5091668;28;19928;-77
2023/04/04 08:43:05;;;;;;;;;;;7.50;57.90;;;6.82;44.58;101877.25;5091631;28;19928;-75
2023/04/04 08:45:33;;;;;;;;;;;7.50;58.00;;;6.83;44.55;101867.47;5091477;28;19928;-76
2023/04/04 08:48:01;;;;;;;;;;;7.50;57.90;;;6.87;45.48;101869.69;5091460;28;19970;-77
2023/04/04 08:50:29;;;;;;;;;;;7.60;59.30;;;6.89;44.63;101866.88;5091442;28;19967;-77
2023/04/04 08:52:58;;;;;;;;;;;7.60;57.90;;;6.78;42.32;101864.44;5091466;28;19935;-77
2023/04/04 08:55:25;;;;;;;;;;;7.60;54.10;;;6.71;41.80;101861.59;5091261;28;19971;-77
2023/04/04 08:57:54;;;;;;;;;;;7.50;54.10;;;6.70;42.07;101875.81;5091232;28;20014;-76
2023/04/04 09:00:22;;;;;;;;;;;7.40;54.50;;;6.68;42.10;101870.66;5091332;28;19935;-75
2023/04/04 09:02:56;;;;;;;;;;;7.40;54.30;;;6.71;42.08;101867.72;5091253;28;19927;-78
2023/04/04 09:05:24;;;;;;;;;;;7.50;54.20;;;6.71;41.69;101870.38;5090433;28;19928;-76
2023/04/04 09:07:51;;;;;;;;;;;7.40;53.40;;;6.68;41.42;101872.47;5090885;28;19928;-76
2023/04/04 09:10:19;;;;;;;;;;;7.40;53.10;;;6.70;41.80;101881.13;5091079;28;20007;-74
2023/04/04 09:12:47;;;;;;;;;;;7.40;53.70;;;6.68;41.61;101867.19;5091155;28;19924;-76
2023/04/04 09:15:16;;;;;;;;;;;7.40;53.20;;;6.67;41.13;101858.38;5090978;28;19953;-77
2023/04/04 09:17:43;;;;;;;;;;;7.40;52.60;;;6.69;41.69;101874.16;5090903;28;19924;-75
2023/04/04 09:20:34;;;;;;;;;;;7.40;53.60;;;6.72;42.31;101863.25;5090769;28;19928;-76
2023/04/04 09:23:02;;;;;;;;;;;7.40;54.70;;;6.73;41.57;101856.94;5081223;28;19935;-77
2023/04/04 09:25:29;;;;;;;;;;;7.40;53.10;;;6.69;40.99;101853.78;5090723;28;19931;-75
2023/04/04 09:27:56;;;;;;;;;;;7.40;52.70;;;6.71;41.88;101851.81;5090618;28;19928;-76
2023/04/04 09:30:25;;;;;;;;;;;7.40;54.10;;;6.67;40.64;101844.31;5090636;28;19934;-76
2023/04/04 09:32:52;;;;;;;;;;;7.40;52.20;;;6.66;41.06;101854.09;5090810;28;20459;-75
2023/04/04 09:35:20;;;;;;;;;;;7.40;52.40;;;6.65;40.75;101849.78;5090512;28;20027;-74
2023/04/04 09:37:47;;;;;;;;;;;7.40;52.00;;;6.58;40.19;101842.56;5090465;28;19928;-76
2023/04/04 09:40:16;;;;;;;;;;;7.30;51.50;;;6.57;41.01;101847.03;5090692;28;20400;-76
2023/04/04 09:42:43;;;;;;;;;;;7.30;52.30;;;6.63;40.82;101861.50;5090562;28;19928;-76
2023/04/04 09:45:11;;;;;;;;;;;7.30;52.50;;;6.63;40.91;101853.53;5090456;28;20405;-74
2023/04/04 09:47:41;;;;;;;;;;;7.30;52.40;;;6.55;40.59;101849.00;5090489;28;19969;-77
2023/04/04 09:50:10;;;;;;;;;;;7.30;51.60;;;6.58;41.02;101840.75;5089695;28;20448;-77
2023/04/04 09:52:37;;;;;;;;;;;7.30;52.20;;;6.62;40.90;101850.06;5090304;28;19924;-75
2023/04/04 09:55:05;;;;;;;;;;;7.30;52.80;;;6.66;40.30;101843.47;5090241;28;19935;-75
2023/04/04 09:57:34;;;;;;;;;;;7.30;51.80;;;6.68;41.24;101841.50;5090062;28;19975;-77
2023/04/04 10:00:05;;;;;;;;;;;7.40;52.90;;;6.72;40.84;101834.91;5090250;28;19928;-76
2023/04/04 10:02:38;;;;;;;;;;;7.40;52.50;;;6.74;40.54;101847.19;5090258;28;19963;-75
2023/04/04 10:05:09;;;;;;;;;;;7.40;51.40;;;6.74;40.59;101840.06;5090231;28;20031;-75
2023/04/04 10:07:39;;;;;;;;;;;7.40;51.60;;;6.75;40.70;101847.03;5090106;28;20367;-75
2023/04/04 10:10:07;;;;;;;;;;;7.50;51.80;;;6.80;40.50;101838.63;5090178;28;19927;-76
2023/04/04 10:12:36;;;;;;;;;;;7.50;51.20;;;6.83;40.30;101843.59;5089991;28;20019;-75
2023/04/04 10:15:03;;;;;;;;;;;7.50;51.60;;;6.84;40.30;101829.38;5089871;28;20026;-74
2023/04/04 10:17:31;;;;;;;;;;;7.50;51.30;;;6.83;39.96;101838.31;5089777;28;19928;-78
2023/04/04 10:20:01;;;;;;;;;;;7.50;51.00;;;6.82;40.46;101840.13;5071737;28;19928;-76
2023/04/04 10:22:30;;;;;;;;;;;7.50;51.40;;;6.82;39.17;101847.25;5090028;28;19935;-76
2023/04/04 10:24:57;;;;;;;;;;;7.60;51.50;;;6.80;38.84;101830.69;5089858;28;19981;-78
2023/04/04 10:27:24;;;;;;;;;;;7.50;51.10;;;6.77;38.19;101833.63;5089618;28;19924;-75
2023/04/04 10:29:52;;;;;;;;;;;7.40;49.90;;;6.74;37.81;101828.66;5089869;28;20015;-76
2023/04/04 10:32:24;;;;;;;;;;;7.40;49.20;;;6.77;38.38;101828.31;5089814;28;19924;-76
2023/04/04 10:34:56;;;;;;;;;;;7.40;50.30;;;6.73;38.37;101825.13;5089729;28;19932;-77
2023/04/04 10:37:27;;;;;;;;;;;7.40;50.40;;;6.76;39.21;101806.28;5089766;28;20039;-76
2023/04/04 10:40:01;;;;;;;;;;;7.40;51.00;;;6.77;38.40;101809.75;5089837;28;19978;-74
2023/04/04 10:42:32;;;;;;;;;;;7.40;50.40;;;6.76;38.92;101814.22;5089916;28;19928;-77
2023/04/04 10:45:01;;;;;;;;;;;7.50;50.70;;;6.78;38.53;101809.59;5089792;28;19939;-76
2023/04/04 10:47:29;;;;;;;;;;;7.50;50.50;;;6.80;38.96;101812.13;5089686;28;20395;-75
2023/04/04 10:49:56;;;;;;;;;;;7.50;50.70;;;6.81;39.61;101801.34;5089740;28;20022;-76
2023/04/04 10:52:24;;;;;;;;;;;7.50;51.40;;;6.84;39.10;101803.72;5089856;28;19932;-75
2023/04/04 10:54:52;;;;;;;;;;;7.50;51.10;;;6.86;39.27;101790.28;5089671;28;20419;-76
2023/04/04 10:57:21;;;;;;;;;;;7.60;51.10;;;6.87;39.19;101800.72;5089641;28;19931;-76
2023/04/04 11:00:07;;;;;;;;;;;7.60;51.30;;;6.91;38.80;101798.59;5089655;28;19928;-75
2023/04/04 11:02:50;;;;;;;;;;;7.60;50.20;;;6.94;39.01;101798.31;5089783;28;19982;-74
2023/04/04 11:05:22;;;;;;;;;;;7.60;50.50;;;6.99;38.54;101789.88;5089496;28;20388;-77
2023/04/04 11:07:54;;;;;;;;;;;7.60;50.60;;;6.98;38.60;101781.09;5089405;28;19924;-78
2023/04/04 11:10:24;;;;;;;;;;;7.70;50.60;;;7.01;39.20;101778.13;5089578;28;19928;-77
2023/04/04 11:12:56;;;;;;;;;;;7.70;51.30;;;7.04;39.67;101775.16;5089599;28;19928;-76
2023/04/04 11:15:24;;;;;;;;;;;7.70;51.60;;;7.05;39.30;101763.56;5089494;28;20038;-77
2023/04/04 11:17:59;;;;;;;;;;;7.80;51.00;;;7.07;37.59;101766.88;5089343;28;20022;-77
2023/04/04 11:20:33;;;;;;;;;;;7.80;49.10;;;7.10;38.39;101765.75;5089309;28;19943;-75
2023/04/04 11:23:14;;;;;;;;;;;7.80;49.70;;;7.10;38.31;101773.72;5089495;28;19967;-78
2023/04/04 11:25:42;;;;;;;;;;;7.80;49.90;;;7.12;38.47;101764.59;5089317;28;20023;-75
2023/04/04 11:28:28;;;;;;;;;;;7.80;49.80;;;7.16;38.88;101750.03;5090930;28;20019;-75
2023/04/04 11:31:26;;;;;;;;;;;7.80;50.40;;;7.14;37.32;101754.69;5093027;28;20445;-74
2023/04/04 11:33:58;;;;;;;;;;;7.90;48.70;;;7.13;37.53;101766.28;5085744;28;19966;-75